• pl
  • eng

Awiacja
TAF FC 10:30 30.04.2017
  • WIND
  • SIGNIFICANT EURO
  • SIGNIFICANT
  • SIGMET
  • AIRMET
  • TAF FC
  • TAF FT
  • METAR GG30
  • METAR GG00


TAF EPLB 300830Z 3009/3018 03007KT 9999 BKN030
PROB40 TEMPO 3010/3018 SHRA BKN020CB
BECMG 3012/3014 09010KT=

TAF EPRA 300830Z 3009/3018 03008KT 9999 SCT025
BECMG 3011/3013 CAVOK=

TAF EPSY 300830Z 3009/3018 01008KT CAVOK=

TAF EPZG 300830Z 3009/3018 05010KT 9999 BKN013
BECMG 3009/3011 BKN035 =
Awiacja.imgw.pl jest pogodowym serwisem informacyjnym
Instytutu Meteorologii i Gospodarki Wodnej Państwowego Instytutu Badawczego.
Copyright IMGW PIB 2009-2011© Wszelkie prawa zastrzeżone.